00:34
Airports
History
Links
Donate
Help keep this website running!
PayPal
Bitcoin
Information on this page is community maintained and may be outdated or inaccurate and is intended for reference only or PC simulator navigating.
Always use approved charts for navigating.
ENBV
Berlevaag
Berlevaag (ENBV)
Finnmark, Norway (9980)
(C)
Lat/Lng:70° 52' 17.31" N / 29° 2' 0.84" E
70.871475 / 29.033567
Elevation:42'ft 13mMSL
ID / ICAO:ENBV
Runways:1
Longest:(07-25) 885.1m 2,904ft Asphalt
Controlled:Yes
Distance To
Airport ID:
Nearby VORs <50NM
Nearby NDBs
METARUpdated 07-24-17 19:50 GMT
Altimeter: 30.12
Visibility: 6.2 statute miles
Wind: 6 knots (090°)
Temp: 9°c 48°f
Humidity: 93.4%

METAR: ENBV 241950Z 09006KT 9999 1500NE PRFG 09/08 Q1020

(Powered by phpweather)
Runway 07 / 25
Dimensions:885.1 x 29.9m 2904' x 98'ft
Surface:Asphalt
Edge Lights:Medium intensity
Runway 07 [A]Runway 25 [B]
Heading:074°TH 254°TH
Lat:
Lng:
70° 52' 13.57"N
29° 1' 18.88"E
70° 52' 21.05"N
29° 2' 42.8"E
ALS:RAILRAIL
User Notes and Comments
Google Map
Nearby Airports
(C) BATSFJORD 24.1 NM
ENBS SE 141°
(C) Mehamn 29.3 NM
ENMH WNW 291°
(C) SVARTNES 58.3 NM
ENSS SE 127°
(C) Vadso 58.8 NM
ENVD SSE 161°
(C) Honningsvaag Valan 69.5 NM
ENHV (WX) W 277°
(C) HOYBUKTMOEN 81.7 NM
ENKR SSE 165°
(C) BANAK 108.9 NM
ENNA (WX) WSW 239°
VFR Chart
Flight Planning at SkyVector.com